sensor_id;sensor_type;location;lat;lon;timestamp;P1;durP1;ratioP1;P2;durP2;ratioP2
29240;SDS011;16268;49.880;8.648;2022-07-30T00:00:56;7.32;;;4.47;;
29240;SDS011;16268;49.880;8.648;2022-07-30T00:03:21;8.65;;;4.10;;
29240;SDS011;16268;49.880;8.648;2022-07-30T00:05:47;7.13;;;4.47;;
29240;SDS011;16268;49.880;8.648;2022-07-30T00:08:13;8.45;;;4.63;;
29240;SDS011;16268;49.880;8.648;2022-07-30T00:10:38;7.55;;;4.72;;
29240;SDS011;16268;49.880;8.648;2022-07-30T00:13:04;6.75;;;5.32;;
29240;SDS011;16268;49.880;8.648;2022-07-30T00:15:31;7.50;;;5.57;;
29240;SDS011;16268;49.880;8.648;2022-07-30T00:17:57;8.07;;;5.72;;
29240;SDS011;16268;49.880;8.648;2022-07-30T00:20:22;7.53;;;5.85;;
29240;SDS011;16268;49.880;8.648;2022-07-30T00:22:48;8.40;;;5.70;;
29240;SDS011;16268;49.880;8.648;2022-07-30T00:25:14;8.68;;;6.28;;
29240;SDS011;16268;49.880;8.648;2022-07-30T00:27:41;8.20;;;6.10;;
29240;SDS011;16268;49.880;8.648;2022-07-30T00:30:08;10.02;;;5.78;;
29240;SDS011;16268;49.880;8.648;2022-07-30T00:32:34;8.20;;;5.80;;
29240;SDS011;16268;49.880;8.648;2022-07-30T00:34:59;8.73;;;5.85;;
29240;SDS011;16268;49.880;8.648;2022-07-30T00:37:25;8.63;;;6.72;;
29240;SDS011;16268;49.880;8.648;2022-07-30T00:39:51;10.13;;;6.60;;
29240;SDS011;16268;49.880;8.648;2022-07-30T00:42:16;9.32;;;6.22;;
29240;SDS011;16268;49.880;8.648;2022-07-30T00:44:49;8.02;;;6.25;;
29240;SDS011;16268;49.880;8.648;2022-07-30T00:47:16;7.85;;;6.10;;
29240;SDS011;16268;49.880;8.648;2022-07-30T00:49:41;11.05;;;6.20;;
29240;SDS011;16268;49.880;8.648;2022-07-30T00:52:07;8.05;;;6.30;;
29240;SDS011;16268;49.880;8.648;2022-07-30T00:54:32;7.03;;;5.78;;
29240;SDS011;16268;49.880;8.648;2022-07-30T00:56:58;8.63;;;5.97;;
29240;SDS011;16268;49.880;8.648;2022-07-30T00:59:23;8.18;;;5.80;;
29240;SDS011;16268;49.880;8.648;2022-07-30T01:01:51;9.27;;;6.22;;
29240;SDS011;16268;49.880;8.648;2022-07-30T01:04:17;10.82;;;6.65;;
29240;SDS011;16268;49.880;8.648;2022-07-30T01:06:42;8.82;;;6.30;;
29240;SDS011;16268;49.880;8.648;2022-07-30T01:09:08;8.40;;;5.95;;
29240;SDS011;16268;49.880;8.648;2022-07-30T01:11:37;7.90;;;6.15;;
29240;SDS011;16268;49.880;8.648;2022-07-30T01:16:30;7.93;;;5.65;;
29240;SDS011;16268;49.880;8.648;2022-07-30T01:18:56;7.43;;;5.57;;
29240;SDS011;16268;49.880;8.648;2022-07-30T01:21:43;8.57;;;5.65;;
29240;SDS011;16268;49.880;8.648;2022-07-30T01:26:47;8.95;;;5.93;;
29240;SDS011;16268;49.880;8.648;2022-07-30T01:29:14;8.52;;;5.88;;
29240;SDS011;16268;49.880;8.648;2022-07-30T01:31:42;7.82;;;5.53;;
29240;SDS011;16268;49.880;8.648;2022-07-30T01:34:08;9.27;;;6.00;;
29240;SDS011;16268;49.880;8.648;2022-07-30T01:36:38;8.88;;;5.53;;
29240;SDS011;16268;49.880;8.648;2022-07-30T01:39:06;7.28;;;5.47;;
29240;SDS011;16268;49.880;8.648;2022-07-30T01:41:32;9.20;;;5.82;;
29240;SDS011;16268;49.880;8.648;2022-07-30T01:43:59;7.63;;;5.68;;
29240;SDS011;16268;49.880;8.648;2022-07-30T01:46:26;9.65;;;5.93;;
29240;SDS011;16268;49.880;8.648;2022-07-30T01:48:53;8.73;;;5.70;;
29240;SDS011;16268;49.880;8.648;2022-07-30T01:51:21;9.18;;;6.00;;
29240;SDS011;16268;49.880;8.648;2022-07-30T01:53:48;9.02;;;5.72;;
29240;SDS011;16268;49.880;8.648;2022-07-30T01:56:14;7.95;;;5.78;;
29240;SDS011;16268;49.880;8.648;2022-07-30T01:58:43;9.75;;;6.80;;
29240;SDS011;16268;49.880;8.648;2022-07-30T02:01:12;8.90;;;6.93;;
29240;SDS011;16268;49.880;8.648;2022-07-30T02:03:37;10.13;;;6.60;;
29240;SDS011;16268;49.880;8.648;2022-07-30T02:06:04;9.52;;;6.60;;
29240;SDS011;16268;49.880;8.648;2022-07-30T02:11:15;8.23;;;6.32;;
29240;SDS011;16268;49.880;8.648;2022-07-30T02:14:00;7.10;;;5.70;;
29240;SDS011;16268;49.880;8.648;2022-07-30T02:16:27;8.35;;;6.13;;
29240;SDS011;16268;49.880;8.648;2022-07-30T02:19:04;9.00;;;6.43;;
29240;SDS011;16268;49.880;8.648;2022-07-30T02:21:34;10.32;;;6.53;;
29240;SDS011;16268;49.880;8.648;2022-07-30T02:24:04;8.73;;;6.47;;
29240;SDS011;16268;49.880;8.648;2022-07-30T02:26:32;29.15;;;8.38;;
29240;SDS011;16268;49.880;8.648;2022-07-30T02:28:59;26.60;;;8.48;;
29240;SDS011;16268;49.880;8.648;2022-07-30T02:31:28;26.90;;;8.82;;
29240;SDS011;16268;49.880;8.648;2022-07-30T02:33:56;19.70;;;7.38;;
29240;SDS011;16268;49.880;8.648;2022-07-30T02:36:24;20.45;;;7.80;;
29240;SDS011;16268;49.880;8.648;2022-07-30T02:38:51;18.95;;;7.85;;
29240;SDS011;16268;49.880;8.648;2022-07-30T02:41:19;16.45;;;7.40;;
29240;SDS011;16268;49.880;8.648;2022-07-30T02:43:47;11.75;;;7.22;;
29240;SDS011;16268;49.880;8.648;2022-07-30T02:46:15;9.20;;;6.90;;
29240;SDS011;16268;49.880;8.648;2022-07-30T02:48:43;9.75;;;7.18;;
29240;SDS011;16268;49.880;8.648;2022-07-30T02:51:10;9.13;;;7.25;;
29240;SDS011;16268;49.880;8.648;2022-07-30T02:53:42;9.95;;;7.38;;
29240;SDS011;16268;49.880;8.648;2022-07-30T02:56:11;8.82;;;7.57;;
29240;SDS011;16268;49.880;8.648;2022-07-30T02:58:40;11.05;;;7.40;;
29240;SDS011;16268;49.880;8.648;2022-07-30T03:01:07;10.93;;;7.32;;
29240;SDS011;16268;49.880;8.648;2022-07-30T03:03:35;10.82;;;7.22;;
29240;SDS011;16268;49.880;8.648;2022-07-30T03:06:02;9.55;;;7.18;;
29240;SDS011;16268;49.880;8.648;2022-07-30T03:08:29;11.20;;;7.43;;
29240;SDS011;16268;49.880;8.648;2022-07-30T03:10:56;13.68;;;7.22;;
29240;SDS011;16268;49.880;8.648;2022-07-30T03:13:23;11.90;;;8.32;;
29240;SDS011;16268;49.880;8.648;2022-07-30T03:15:49;9.02;;;7.63;;
29240;SDS011;16268;49.880;8.648;2022-07-30T03:18:17;11.27;;;7.20;;
29240;SDS011;16268;49.880;8.648;2022-07-30T03:20:50;10.20;;;7.78;;
29240;SDS011;16268;49.880;8.648;2022-07-30T03:23:18;9.20;;;7.63;;
29240;SDS011;16268;49.880;8.648;2022-07-30T03:25:47;10.30;;;7.40;;
29240;SDS011;16268;49.880;8.648;2022-07-30T03:28:25;10.43;;;7.55;;
29240;SDS011;16268;49.880;8.648;2022-07-30T03:30:54;11.13;;;8.38;;
29240;SDS011;16268;49.880;8.648;2022-07-30T03:33:20;9.27;;;7.78;;
29240;SDS011;16268;49.880;8.648;2022-07-30T03:35:47;9.13;;;7.45;;
29240;SDS011;16268;49.880;8.648;2022-07-30T03:38:13;9.88;;;7.15;;
29240;SDS011;16268;49.880;8.648;2022-07-30T03:40:40;10.27;;;6.95;;
29240;SDS011;16268;49.880;8.648;2022-07-30T03:43:10;9.38;;;7.13;;
29240;SDS011;16268;49.880;8.648;2022-07-30T03:45:37;7.75;;;6.55;;
29240;SDS011;16268;49.880;8.648;2022-07-30T03:48:06;10.93;;;6.78;;
29240;SDS011;16268;49.880;8.648;2022-07-30T03:50:34;9.00;;;6.35;;
29240;SDS011;16268;49.880;8.648;2022-07-30T03:53:02;9.40;;;6.50;;
29240;SDS011;16268;49.880;8.648;2022-07-30T03:55:28;9.20;;;6.65;;
29240;SDS011;16268;49.880;8.648;2022-07-30T03:57:55;8.73;;;6.40;;
29240;SDS011;16268;49.880;8.648;2022-07-30T04:00:20;7.82;;;6.32;;
29240;SDS011;16268;49.880;8.648;2022-07-30T04:02:46;8.90;;;6.25;;
29240;SDS011;16268;49.880;8.648;2022-07-30T04:05:12;8.57;;;6.10;;
29240;SDS011;16268;49.880;8.648;2022-07-30T04:07:38;10.95;;;5.93;;
29240;SDS011;16268;49.880;8.648;2022-07-30T04:10:04;8.60;;;5.72;;
29240;SDS011;16268;49.880;8.648;2022-07-30T04:12:30;9.05;;;6.30;;
29240;SDS011;16268;49.880;8.648;2022-07-30T04:14:56;7.93;;;5.85;;
29240;SDS011;16268;49.880;8.648;2022-07-30T04:17:23;7.93;;;5.95;;
29240;SDS011;16268;49.880;8.648;2022-07-30T04:19:59;8.82;;;5.65;;
29240;SDS011;16268;49.880;8.648;2022-07-30T04:22:31;8.13;;;5.97;;
29240;SDS011;16268;49.880;8.648;2022-07-30T04:25:00;8.43;;;6.10;;
29240;SDS011;16268;49.880;8.648;2022-07-30T04:27:27;9.00;;;6.55;;
29240;SDS011;16268;49.880;8.648;2022-07-30T04:29:55;10.55;;;6.22;;
29240;SDS011;16268;49.880;8.648;2022-07-30T04:32:20;8.38;;;6.25;;
29240;SDS011;16268;49.880;8.648;2022-07-30T04:34:49;9.20;;;6.97;;
29240;SDS011;16268;49.880;8.648;2022-07-30T04:37:18;8.70;;;7.10;;
29240;SDS011;16268;49.880;8.648;2022-07-30T04:39:44;8.63;;;6.53;;
29240;SDS011;16268;49.880;8.648;2022-07-30T04:42:10;10.55;;;6.75;;
29240;SDS011;16268;49.880;8.648;2022-07-30T04:44:36;9.85;;;6.13;;
29240;SDS011;16268;49.880;8.648;2022-07-30T04:47:02;9.43;;;6.30;;
29240;SDS011;16268;49.880;8.648;2022-07-30T04:49:28;9.75;;;5.90;;
29240;SDS011;16268;49.880;8.648;2022-07-30T04:51:55;9.10;;;6.25;;
29240;SDS011;16268;49.880;8.648;2022-07-30T04:54:20;8.23;;;6.18;;
29240;SDS011;16268;49.880;8.648;2022-07-30T04:56:48;9.70;;;6.35;;
29240;SDS011;16268;49.880;8.648;2022-07-30T04:59:15;9.93;;;6.72;;
29240;SDS011;16268;49.880;8.648;2022-07-30T05:01:42;7.15;;;5.60;;
29240;SDS011;16268;49.880;8.648;2022-07-30T05:04:12;7.75;;;5.63;;
29240;SDS011;16268;49.880;8.648;2022-07-30T05:06:39;7.90;;;5.97;;
29240;SDS011;16268;49.880;8.648;2022-07-30T05:09:06;8.15;;;6.15;;
29240;SDS011;16268;49.880;8.648;2022-07-30T05:11:32;10.60;;;6.93;;
29240;SDS011;16268;49.880;8.648;2022-07-30T05:13:58;10.77;;;7.50;;
29240;SDS011;16268;49.880;8.648;2022-07-30T05:16:24;12.73;;;8.57;;
29240;SDS011;16268;49.880;8.648;2022-07-30T05:18:50;11.60;;;8.38;;
29240;SDS011;16268;49.880;8.648;2022-07-30T05:21:16;10.38;;;7.97;;
29240;SDS011;16268;49.880;8.648;2022-07-30T05:23:41;11.48;;;8.32;;
29240;SDS011;16268;49.880;8.648;2022-07-30T05:26:07;14.77;;;8.65;;
29240;SDS011;16268;49.880;8.648;2022-07-30T05:28:32;11.85;;;8.27;;
29240;SDS011;16268;49.880;8.648;2022-07-30T05:30:58;11.07;;;8.00;;
29240;SDS011;16268;49.880;8.648;2022-07-30T05:33:23;10.77;;;7.68;;
29240;SDS011;16268;49.880;8.648;2022-07-30T05:35:49;12.00;;;7.05;;
29240;SDS011;16268;49.880;8.648;2022-07-30T05:38:15;10.20;;;7.00;;
29240;SDS011;16268;49.880;8.648;2022-07-30T05:40:41;10.45;;;6.07;;
29240;SDS011;16268;49.880;8.648;2022-07-30T05:43:08;11.15;;;6.47;;
29240;SDS011;16268;49.880;8.648;2022-07-30T05:45:34;11.57;;;6.03;;
29240;SDS011;16268;49.880;8.648;2022-07-30T05:48:00;9.88;;;6.32;;
29240;SDS011;16268;49.880;8.648;2022-07-30T05:50:25;9.95;;;5.55;;
29240;SDS011;16268;49.880;8.648;2022-07-30T05:52:51;8.55;;;5.50;;
29240;SDS011;16268;49.880;8.648;2022-07-30T05:55:17;9.07;;;5.07;;
29240;SDS011;16268;49.880;8.648;2022-07-30T05:57:42;8.48;;;4.60;;
29240;SDS011;16268;49.880;8.648;2022-07-30T06:00:08;7.90;;;4.25;;
29240;SDS011;16268;49.880;8.648;2022-07-30T06:02:35;7.20;;;3.63;;
29240;SDS011;16268;49.880;8.648;2022-07-30T06:05:03;7.18;;;3.65;;
29240;SDS011;16268;49.880;8.648;2022-07-30T06:07:29;8.30;;;3.40;;
29240;SDS011;16268;49.880;8.648;2022-07-30T06:09:54;8.18;;;3.35;;
29240;SDS011;16268;49.880;8.648;2022-07-30T06:12:24;7.25;;;3.30;;
29240;SDS011;16268;49.880;8.648;2022-07-30T06:14:50;5.80;;;3.05;;
29240;SDS011;16268;49.880;8.648;2022-07-30T06:17:16;6.07;;;2.90;;
29240;SDS011;16268;49.880;8.648;2022-07-30T06:19:41;6.78;;;3.10;;
29240;SDS011;16268;49.880;8.648;2022-07-30T06:22:07;5.57;;;2.60;;
29240;SDS011;16268;49.880;8.648;2022-07-30T06:24:33;8.23;;;3.13;;
29240;SDS011;16268;49.880;8.648;2022-07-30T06:26:58;6.10;;;2.78;;
29240;SDS011;16268;49.880;8.648;2022-07-30T06:29:24;5.60;;;2.22;;
29240;SDS011;16268;49.880;8.648;2022-07-30T06:31:49;5.70;;;3.10;;
29240;SDS011;16268;49.880;8.648;2022-07-30T06:34:15;6.32;;;2.40;;
29240;SDS011;16268;49.880;8.648;2022-07-30T06:36:40;6.88;;;2.65;;
29240;SDS011;16268;49.880;8.648;2022-07-30T06:39:06;5.60;;;2.30;;
29240;SDS011;16268;49.880;8.648;2022-07-30T06:41:31;5.22;;;2.40;;
29240;SDS011;16268;49.880;8.648;2022-07-30T06:43:57;7.25;;;3.97;;
29240;SDS011;16268;49.880;8.648;2022-07-30T06:46:22;5.30;;;2.63;;
29240;SDS011;16268;49.880;8.648;2022-07-30T06:48:48;7.78;;;2.30;;
29240;SDS011;16268;49.880;8.648;2022-07-30T06:51:13;7.72;;;3.00;;
29240;SDS011;16268;49.880;8.648;2022-07-30T06:53:39;7.90;;;3.50;;
29240;SDS011;16268;49.880;8.648;2022-07-30T06:56:05;7.50;;;3.75;;
29240;SDS011;16268;49.880;8.648;2022-07-30T06:58:30;6.75;;;3.58;;
29240;SDS011;16268;49.880;8.648;2022-07-30T07:00:56;5.63;;;3.20;;
29240;SDS011;16268;49.880;8.648;2022-07-30T07:03:21;6.85;;;3.40;;
29240;SDS011;16268;49.880;8.648;2022-07-30T07:05:47;6.75;;;3.50;;
29240;SDS011;16268;49.880;8.648;2022-07-30T07:08:13;8.70;;;3.67;;
29240;SDS011;16268;49.880;8.648;2022-07-30T07:10:38;7.25;;;3.50;;
29240;SDS011;16268;49.880;8.648;2022-07-30T07:13:04;6.28;;;3.10;;
29240;SDS011;16268;49.880;8.648;2022-07-30T07:15:29;7.97;;;3.30;;
29240;SDS011;16268;49.880;8.648;2022-07-30T07:17:55;6.43;;;3.65;;
29240;SDS011;16268;49.880;8.648;2022-07-30T07:20:21;6.93;;;3.80;;
29240;SDS011;16268;49.880;8.648;2022-07-30T07:22:46;7.05;;;3.53;;
29240;SDS011;16268;49.880;8.648;2022-07-30T07:25:12;8.25;;;4.35;;
29240;SDS011;16268;49.880;8.648;2022-07-30T07:27:37;6.53;;;3.42;;
29240;SDS011;16268;49.880;8.648;2022-07-30T07:30:03;8.70;;;4.20;;
29240;SDS011;16268;49.880;8.648;2022-07-30T07:32:29;8.65;;;4.10;;
29240;SDS011;16268;49.880;8.648;2022-07-30T07:34:55;7.53;;;3.67;;
29240;SDS011;16268;49.880;8.648;2022-07-30T07:37:21;7.43;;;4.43;;
29240;SDS011;16268;49.880;8.648;2022-07-30T07:39:46;8.48;;;3.90;;
29240;SDS011;16268;49.880;8.648;2022-07-30T07:42:12;8.85;;;3.80;;
29240;SDS011;16268;49.880;8.648;2022-07-30T07:44:37;8.25;;;3.70;;
29240;SDS011;16268;49.880;8.648;2022-07-30T07:47:03;9.57;;;4.50;;
29240;SDS011;16268;49.880;8.648;2022-07-30T07:49:29;8.35;;;4.40;;
29240;SDS011;16268;49.880;8.648;2022-07-30T07:51:54;9.10;;;5.00;;
29240;SDS011;16268;49.880;8.648;2022-07-30T07:54:20;9.52;;;4.80;;
29240;SDS011;16268;49.880;8.648;2022-07-30T07:56:45;9.05;;;4.50;;
29240;SDS011;16268;49.880;8.648;2022-07-30T07:59:12;8.75;;;4.88;;
29240;SDS011;16268;49.880;8.648;2022-07-30T08:01:38;8.82;;;4.30;;
29240;SDS011;16268;49.880;8.648;2022-07-30T08:04:03;8.32;;;4.18;;
29240;SDS011;16268;49.880;8.648;2022-07-30T08:06:29;10.35;;;4.20;;
29240;SDS011;16268;49.880;8.648;2022-07-30T08:08:54;7.18;;;4.03;;
29240;SDS011;16268;49.880;8.648;2022-07-30T08:11:20;10.43;;;4.55;;
29240;SDS011;16268;49.880;8.648;2022-07-30T08:13:46;9.98;;;5.43;;
29240;SDS011;16268;49.880;8.648;2022-07-30T08:16:11;7.03;;;4.38;;
29240;SDS011;16268;49.880;8.648;2022-07-30T08:18:38;9.18;;;4.97;;
29240;SDS011;16268;49.880;8.648;2022-07-30T08:21:04;8.93;;;4.78;;
29240;SDS011;16268;49.880;8.648;2022-07-30T08:23:30;8.30;;;3.90;;
29240;SDS011;16268;49.880;8.648;2022-07-30T08:25:56;8.60;;;5.10;;
29240;SDS011;16268;49.880;8.648;2022-07-30T08:28:22;9.02;;;5.13;;
29240;SDS011;16268;49.880;8.648;2022-07-30T08:30:48;10.90;;;5.20;;
29240;SDS011;16268;49.880;8.648;2022-07-30T08:33:20;8.15;;;4.68;;
29240;SDS011;16268;49.880;8.648;2022-07-30T08:35:46;10.07;;;5.63;;
29240;SDS011;16268;49.880;8.648;2022-07-30T08:38:11;9.32;;;5.18;;
29240;SDS011;16268;49.880;8.648;2022-07-30T08:40:37;12.30;;;5.28;;
29240;SDS011;16268;49.880;8.648;2022-07-30T08:43:04;9.07;;;4.97;;
29240;SDS011;16268;49.880;8.648;2022-07-30T08:45:31;8.23;;;4.35;;
29240;SDS011;16268;49.880;8.648;2022-07-30T08:47:58;11.00;;;6.15;;
29240;SDS011;16268;49.880;8.648;2022-07-30T08:50:25;8.52;;;4.88;;
29240;SDS011;16268;49.880;8.648;2022-07-30T08:52:51;9.98;;;5.10;;
29240;SDS011;16268;49.880;8.648;2022-07-30T08:55:20;12.55;;;6.50;;
29240;SDS011;16268;49.880;8.648;2022-07-30T08:57:46;10.43;;;5.78;;
29240;SDS011;16268;49.880;8.648;2022-07-30T09:00:13;9.63;;;5.22;;
29240;SDS011;16268;49.880;8.648;2022-07-30T09:02:39;9.13;;;6.50;;
29240;SDS011;16268;49.880;8.648;2022-07-30T09:05:05;11.25;;;6.55;;
29240;SDS011;16268;49.880;8.648;2022-07-30T09:07:31;9.18;;;5.15;;
29240;SDS011;16268;49.880;8.648;2022-07-30T09:09:57;10.02;;;5.32;;
29240;SDS011;16268;49.880;8.648;2022-07-30T09:15:11;8.35;;;5.40;;
29240;SDS011;16268;49.880;8.648;2022-07-30T09:17:53;8.00;;;3.95;;
29240;SDS011;16268;49.880;8.648;2022-07-30T09:20:25;6.93;;;4.32;;
29240;SDS011;16268;49.880;8.648;2022-07-30T09:22:53;8.05;;;4.60;;
29240;SDS011;16268;49.880;8.648;2022-07-30T09:25:33;10.10;;;4.80;;
29240;SDS011;16268;49.880;8.648;2022-07-30T09:28:10;8.68;;;4.18;;
29240;SDS011;16268;49.880;8.648;2022-07-30T09:30:43;12.43;;;6.40;;
29240;SDS011;16268;49.880;8.648;2022-07-30T09:33:11;9.45;;;5.22;;
29240;SDS011;16268;49.880;8.648;2022-07-30T09:35:37;9.93;;;4.88;;
29240;SDS011;16268;49.880;8.648;2022-07-30T09:38:03;10.52;;;5.03;;
29240;SDS011;16268;49.880;8.648;2022-07-30T09:40:30;8.68;;;3.75;;
29240;SDS011;16268;49.880;8.648;2022-07-30T09:43:03;7.03;;;3.50;;
29240;SDS011;16268;49.880;8.648;2022-07-30T09:45:49;7.22;;;3.47;;
29240;SDS011;16268;49.880;8.648;2022-07-30T09:48:20;7.03;;;3.15;;
29240;SDS011;16268;49.880;8.648;2022-07-30T09:50:47;10.27;;;4.20;;
29240;SDS011;16268;49.880;8.648;2022-07-30T09:53:14;8.07;;;3.72;;
29240;SDS011;16268;49.880;8.648;2022-07-30T09:55:39;6.80;;;3.13;;
29240;SDS011;16268;49.880;8.648;2022-07-30T09:58:05;7.63;;;3.42;;
29240;SDS011;16268;49.880;8.648;2022-07-30T10:00:32;5.78;;;2.60;;
29240;SDS011;16268;49.880;8.648;2022-07-30T10:02:59;5.93;;;2.40;;
29240;SDS011;16268;49.880;8.648;2022-07-30T10:05:37;5.70;;;2.08;;
29240;SDS011;16268;49.880;8.648;2022-07-30T10:08:12;6.10;;;2.42;;
29240;SDS011;16268;49.880;8.648;2022-07-30T10:10:38;5.70;;;2.00;;
29240;SDS011;16268;49.880;8.648;2022-07-30T10:13:04;5.22;;;2.45;;
29240;SDS011;16268;49.880;8.648;2022-07-30T10:15:33;5.75;;;2.60;;
29240;SDS011;16268;49.880;8.648;2022-07-30T10:18:00;4.93;;;2.25;;
29240;SDS011;16268;49.880;8.648;2022-07-30T10:20:26;6.82;;;2.95;;
29240;SDS011;16268;49.880;8.648;2022-07-30T10:22:52;6.45;;;2.28;;
29240;SDS011;16268;49.880;8.648;2022-07-30T10:25:19;4.22;;;2.00;;
29240;SDS011;16268;49.880;8.648;2022-07-30T10:27:46;5.93;;;2.67;;
29240;SDS011;16268;49.880;8.648;2022-07-30T10:30:12;7.45;;;2.63;;
29240;SDS011;16268;49.880;8.648;2022-07-30T10:32:38;6.38;;;2.40;;
29240;SDS011;16268;49.880;8.648;2022-07-30T10:35:04;5.47;;;2.30;;
29240;SDS011;16268;49.880;8.648;2022-07-30T10:37:31;6.60;;;2.13;;
29240;SDS011;16268;49.880;8.648;2022-07-30T10:47:55;4.88;;;1.60;;
29240;SDS011;16268;49.880;8.648;2022-07-30T10:50:22;3.38;;;1.50;;
29240;SDS011;16268;49.880;8.648;2022-07-30T10:55:23;4.03;;;1.90;;
29240;SDS011;16268;49.880;8.648;2022-07-30T10:58:01;3.85;;;1.50;;
29240;SDS011;16268;49.880;8.648;2022-07-30T11:00:32;4.13;;;1.80;;
29240;SDS011;16268;49.880;8.648;2022-07-30T11:03:19;4.25;;;1.70;;
29240;SDS011;16268;49.880;8.648;2022-07-30T11:05:50;4.72;;;1.85;;
29240;SDS011;16268;49.880;8.648;2022-07-30T11:08:40;4.68;;;1.55;;
29240;SDS011;16268;49.880;8.648;2022-07-30T11:13:47;5.57;;;1.70;;
29240;SDS011;16268;49.880;8.648;2022-07-30T11:16:22;3.90;;;1.63;;
29240;SDS011;16268;49.880;8.648;2022-07-30T11:19:10;3.58;;;1.60;;
29240;SDS011;16268;49.880;8.648;2022-07-30T11:21:48;3.65;;;1.48;;
29240;SDS011;16268;49.880;8.648;2022-07-30T11:24:48;5.30;;;1.75;;
29240;SDS011;16268;49.880;8.648;2022-07-30T11:30:01;6.68;;;1.60;;
29240;SDS011;16268;49.880;8.648;2022-07-30T11:32:39;4.57;;;1.80;;
29240;SDS011;16268;49.880;8.648;2022-07-30T11:35:10;4.00;;;1.70;;
29240;SDS011;16268;49.880;8.648;2022-07-30T11:40:21;2.78;;;1.40;;
29240;SDS011;16268;49.880;8.648;2022-07-30T11:42:47;5.68;;;1.70;;
29240;SDS011;16268;49.880;8.648;2022-07-30T11:47:45;4.57;;;1.50;;
29240;SDS011;16268;49.880;8.648;2022-07-30T11:50:16;3.70;;;1.45;;
29240;SDS011;16268;49.880;8.648;2022-07-30T11:52:49;3.58;;;1.55;;
29240;SDS011;16268;49.880;8.648;2022-07-30T11:55:24;2.97;;;1.50;;
29240;SDS011;16268;49.880;8.648;2022-07-30T11:57:52;3.30;;;1.60;;
29240;SDS011;16268;49.880;8.648;2022-07-30T12:00:19;3.40;;;1.52;;
29240;SDS011;16268;49.880;8.648;2022-07-30T12:02:46;4.97;;;1.77;;
29240;SDS011;16268;49.880;8.648;2022-07-30T12:05:12;4.20;;;1.77;;
29240;SDS011;16268;49.880;8.648;2022-07-30T12:07:38;3.85;;;1.38;;
29240;SDS011;16268;49.880;8.648;2022-07-30T12:10:10;3.65;;;1.60;;
29240;SDS011;16268;49.880;8.648;2022-07-30T12:12:40;5.72;;;1.60;;
29240;SDS011;16268;49.880;8.648;2022-07-30T12:15:06;4.75;;;1.60;;
29240;SDS011;16268;49.880;8.648;2022-07-30T12:20:17;4.72;;;1.30;;
29240;SDS011;16268;49.880;8.648;2022-07-30T12:22:44;5.32;;;1.30;;
29240;SDS011;16268;49.880;8.648;2022-07-30T12:25:09;5.90;;;1.67;;
29240;SDS011;16268;49.880;8.648;2022-07-30T12:27:36;4.07;;;1.40;;
29240;SDS011;16268;49.880;8.648;2022-07-30T12:30:03;3.03;;;1.58;;
29240;SDS011;16268;49.880;8.648;2022-07-30T12:32:29;2.88;;;1.48;;
29240;SDS011;16268;49.880;8.648;2022-07-30T12:34:55;3.58;;;1.50;;
29240;SDS011;16268;49.880;8.648;2022-07-30T12:37:21;3.72;;;1.88;;
29240;SDS011;16268;49.880;8.648;2022-07-30T12:39:47;3.65;;;1.90;;
29240;SDS011;16268;49.880;8.648;2022-07-30T12:42:17;4.35;;;1.60;;
29240;SDS011;16268;49.880;8.648;2022-07-30T12:44:43;3.85;;;1.52;;
29240;SDS011;16268;49.880;8.648;2022-07-30T12:47:22;3.63;;;1.55;;
29240;SDS011;16268;49.880;8.648;2022-07-30T12:49:50;4.22;;;1.67;;
29240;SDS011;16268;49.880;8.648;2022-07-30T12:52:26;3.50;;;1.50;;
29240;SDS011;16268;49.880;8.648;2022-07-30T12:57:26;3.85;;;1.48;;
29240;SDS011;16268;49.880;8.648;2022-07-30T12:59:59;3.08;;;1.30;;
29240;SDS011;16268;49.880;8.648;2022-07-30T13:02:31;4.90;;;1.50;;
29240;SDS011;16268;49.880;8.648;2022-07-30T13:04:57;4.05;;;1.55;;
29240;SDS011;16268;49.880;8.648;2022-07-30T13:07:23;3.45;;;1.15;;
29240;SDS011;16268;49.880;8.648;2022-07-30T13:10:11;5.45;;;1.45;;
29240;SDS011;16268;49.880;8.648;2022-07-30T13:12:37;4.03;;;1.27;;
29240;SDS011;16268;49.880;8.648;2022-07-30T13:15:03;2.55;;;1.13;;
29240;SDS011;16268;49.880;8.648;2022-07-30T13:17:29;4.28;;;1.52;;
29240;SDS011;16268;49.880;8.648;2022-07-30T13:19:55;2.80;;;1.25;;
29240;SDS011;16268;49.880;8.648;2022-07-30T13:22:21;3.63;;;1.23;;
29240;SDS011;16268;49.880;8.648;2022-07-30T13:24:47;4.05;;;1.65;;
29240;SDS011;16268;49.880;8.648;2022-07-30T13:27:12;4.10;;;1.20;;
29240;SDS011;16268;49.880;8.648;2022-07-30T13:29:40;5.22;;;1.40;;
29240;SDS011;16268;49.880;8.648;2022-07-30T13:32:06;2.72;;;1.38;;
29240;SDS011;16268;49.880;8.648;2022-07-30T13:34:32;4.53;;;1.50;;
29240;SDS011;16268;49.880;8.648;2022-07-30T13:36:58;3.35;;;1.30;;
29240;SDS011;16268;49.880;8.648;2022-07-30T13:39:23;4.25;;;1.33;;
29240;SDS011;16268;49.880;8.648;2022-07-30T13:41:49;2.65;;;1.10;;
29240;SDS011;16268;49.880;8.648;2022-07-30T13:44:14;2.60;;;1.30;;
29240;SDS011;16268;49.880;8.648;2022-07-30T13:46:41;4.38;;;1.30;;
29240;SDS011;16268;49.880;8.648;2022-07-30T13:49:06;4.70;;;1.48;;
29240;SDS011;16268;49.880;8.648;2022-07-30T13:51:32;3.50;;;1.58;;
29240;SDS011;16268;49.880;8.648;2022-07-30T13:53:58;3.78;;;1.30;;
29240;SDS011;16268;49.880;8.648;2022-07-30T13:56:23;3.20;;;1.42;;
29240;SDS011;16268;49.880;8.648;2022-07-30T13:58:49;4.15;;;1.40;;
29240;SDS011;16268;49.880;8.648;2022-07-30T14:01:14;3.13;;;1.40;;
29240;SDS011;16268;49.880;8.648;2022-07-30T14:03:40;3.80;;;1.48;;
29240;SDS011;16268;49.880;8.648;2022-07-30T14:06:05;3.03;;;1.40;;
29240;SDS011;16268;49.880;8.648;2022-07-30T14:08:31;2.60;;;1.35;;
29240;SDS011;16268;49.880;8.648;2022-07-30T14:10:57;3.22;;;1.23;;
29240;SDS011;16268;49.880;8.648;2022-07-30T14:13:23;3.35;;;1.50;;
29240;SDS011;16268;49.880;8.648;2022-07-30T14:15:49;3.80;;;1.40;;
29240;SDS011;16268;49.880;8.648;2022-07-30T14:18:14;3.30;;;1.13;;
29240;SDS011;16268;49.880;8.648;2022-07-30T14:20:40;5.38;;;2.70;;
29240;SDS011;16268;49.880;8.648;2022-07-30T14:23:05;3.05;;;1.20;;
29240;SDS011;16268;49.880;8.648;2022-07-30T14:25:31;4.60;;;1.30;;
29240;SDS011;16268;49.880;8.648;2022-07-30T14:27:57;3.03;;;1.13;;
29240;SDS011;16268;49.880;8.648;2022-07-30T14:30:22;2.95;;;1.30;;
29240;SDS011;16268;49.880;8.648;2022-07-30T14:32:48;2.38;;;1.25;;
29240;SDS011;16268;49.880;8.648;2022-07-30T14:35:14;3.45;;;1.60;;
29240;SDS011;16268;49.880;8.648;2022-07-30T14:37:40;7.60;;;5.32;;
29240;SDS011;16268;49.880;8.648;2022-07-30T14:40:08;3.38;;;1.60;;
29240;SDS011;16268;49.880;8.648;2022-07-30T14:42:37;5.53;;;1.52;;
29240;SDS011;16268;49.880;8.648;2022-07-30T14:45:06;2.92;;;1.20;;
29240;SDS011;16268;49.880;8.648;2022-07-30T14:47:33;3.13;;;1.50;;
29240;SDS011;16268;49.880;8.648;2022-07-30T14:49:59;3.72;;;1.20;;
29240;SDS011;16268;49.880;8.648;2022-07-30T14:52:24;2.75;;;1.15;;
29240;SDS011;16268;49.880;8.648;2022-07-30T14:54:50;2.97;;;1.10;;
29240;SDS011;16268;49.880;8.648;2022-07-30T14:57:16;2.50;;;1.02;;
29240;SDS011;16268;49.880;8.648;2022-07-30T14:59:41;2.22;;;1.05;;
29240;SDS011;16268;49.880;8.648;2022-07-30T15:02:07;3.60;;;1.00;;
29240;SDS011;16268;49.880;8.648;2022-07-30T15:04:32;3.15;;;1.10;;
29240;SDS011;16268;49.880;8.648;2022-07-30T15:06:58;2.45;;;1.20;;
29240;SDS011;16268;49.880;8.648;2022-07-30T15:09:23;3.47;;;1.40;;
29240;SDS011;16268;49.880;8.648;2022-07-30T15:11:49;2.70;;;1.15;;
29240;SDS011;16268;49.880;8.648;2022-07-30T15:14:14;3.58;;;1.30;;
29240;SDS011;16268;49.880;8.648;2022-07-30T15:16:40;3.22;;;1.10;;
29240;SDS011;16268;49.880;8.648;2022-07-30T15:19:06;4.50;;;1.30;;
29240;SDS011;16268;49.880;8.648;2022-07-30T15:21:31;1.63;;;0.90;;
29240;SDS011;16268;49.880;8.648;2022-07-30T15:23:57;2.53;;;1.10;;